sensor_id;sensor_type;location;lat;lon;timestamp;pressure;altitude;pressure_sealevel;temperature;humidity
19624;BME280;9959;49.798;9.928;2023-07-08T00:00:54;99790.94;;;18.07;62.77
19624;BME280;9959;49.798;9.928;2023-07-08T00:03:21;99788.69;;;17.99;63.58
19624;BME280;9959;49.798;9.928;2023-07-08T00:05:53;99794.16;;;17.99;62.81
19624;BME280;9959;49.798;9.928;2023-07-08T00:08:22;99785.91;;;17.93;62.60
19624;BME280;9959;49.798;9.928;2023-07-08T00:10:48;99783.13;;;17.88;62.36
19624;BME280;9959;49.798;9.928;2023-07-08T00:13:15;99788.13;;;17.97;61.43
19624;BME280;9959;49.798;9.928;2023-07-08T00:15:43;99779.88;;;17.91;61.21
19624;BME280;9959;49.798;9.928;2023-07-08T00:18:16;99781.91;;;17.79;62.75
19624;BME280;9959;49.798;9.928;2023-07-08T00:20:45;99782.72;;;17.75;63.46
19624;BME280;9959;49.798;9.928;2023-07-08T00:23:13;99778.91;;;17.76;64.08
19624;BME280;9959;49.798;9.928;2023-07-08T00:25:41;99781.56;;;17.71;64.08
19624;BME280;9959;49.798;9.928;2023-07-08T00:28:14;99777.97;;;17.92;63.04
19624;BME280;9959;49.798;9.928;2023-07-08T00:30:41;99768.84;;;17.76;63.67
19624;BME280;9959;49.798;9.928;2023-07-08T00:33:08;99773.59;;;17.91;63.55
19624;BME280;9959;49.798;9.928;2023-07-08T00:35:36;99768.25;;;17.74;64.24
19624;BME280;9959;49.798;9.928;2023-07-08T00:38:19;99766.06;;;17.54;64.13
19624;BME280;9959;49.798;9.928;2023-07-08T00:43:22;99767.88;;;17.44;66.15
19624;BME280;9959;49.798;9.928;2023-07-08T00:45:53;99772.69;;;17.37;67.04
19624;BME280;9959;49.798;9.928;2023-07-08T00:48:31;99765.06;;;17.39;66.68
19624;BME280;9959;49.798;9.928;2023-07-08T00:51:00;99768.81;;;17.33;66.68
19624;BME280;9959;49.798;9.928;2023-07-08T00:53:31;99767.97;;;17.32;66.64
19624;BME280;9959;49.798;9.928;2023-07-08T00:56:11;99767.16;;;17.32;66.68
19624;BME280;9959;49.798;9.928;2023-07-08T00:58:43;99769.81;;;17.26;67.32
19624;BME280;9959;49.798;9.928;2023-07-08T01:01:12;99773.75;;;17.36;66.75
19624;BME280;9959;49.798;9.928;2023-07-08T01:03:45;99769.78;;;17.21;65.80
19624;BME280;9959;49.798;9.928;2023-07-08T01:06:17;99778.94;;;17.15;65.83
19624;BME280;9959;49.798;9.928;2023-07-08T01:08:45;99783.31;;;17.16;65.58
19624;BME280;9959;49.798;9.928;2023-07-08T01:11:13;99776.13;;;17.10;65.93
19624;BME280;9959;49.798;9.928;2023-07-08T01:13:42;99776.38;;;17.09;65.92
19624;BME280;9959;49.798;9.928;2023-07-08T01:16:16;99786.81;;;16.95;66.73
19624;BME280;9959;49.798;9.928;2023-07-08T01:18:45;99780.84;;;16.98;66.95
19624;BME280;9959;49.798;9.928;2023-07-08T01:21:35;99777.56;;;16.96;67.30
19624;BME280;9959;49.798;9.928;2023-07-08T01:24:09;99787.53;;;17.07;66.76
19624;BME280;9959;49.798;9.928;2023-07-08T01:26:42;99788.69;;;17.11;66.79
19624;BME280;9959;49.798;9.928;2023-07-08T01:29:11;99791.56;;;17.05;67.37
19624;BME280;9959;49.798;9.928;2023-07-08T01:31:39;99796.47;;;16.86;68.09
19624;BME280;9959;49.798;9.928;2023-07-08T01:34:08;99786.53;;;16.97;68.06
19624;BME280;9959;49.798;9.928;2023-07-08T01:36:41;99790.53;;;16.89;68.75
19624;BME280;9959;49.798;9.928;2023-07-08T01:39:12;99784.09;;;16.78;69.08
19624;BME280;9959;49.798;9.928;2023-07-08T01:41:40;99780.44;;;16.68;69.45
19624;BME280;9959;49.798;9.928;2023-07-08T01:44:29;99782.88;;;16.86;68.61
19624;BME280;9959;49.798;9.928;2023-07-08T01:47:04;99779.31;;;16.69;69.55
19624;BME280;9959;49.798;9.928;2023-07-08T01:49:33;99781.03;;;16.58;69.52
19624;BME280;9959;49.798;9.928;2023-07-08T01:52:02;99771.41;;;16.50;70.11
19624;BME280;9959;49.798;9.928;2023-07-08T01:54:29;99767.13;;;16.54;69.43
19624;BME280;9959;49.798;9.928;2023-07-08T01:56:57;99766.72;;;16.63;69.24
19624;BME280;9959;49.798;9.928;2023-07-08T01:59:24;99767.63;;;16.85;68.20
19624;BME280;9959;49.798;9.928;2023-07-08T02:01:52;99774.69;;;16.52;70.67
19624;BME280;9959;49.798;9.928;2023-07-08T02:04:23;99774.50;;;16.42;70.82
19624;BME280;9959;49.798;9.928;2023-07-08T02:06:55;99764.31;;;16.49;70.11
19624;BME280;9959;49.798;9.928;2023-07-08T02:09:22;99765.63;;;16.47;70.22
19624;BME280;9959;49.798;9.928;2023-07-08T02:11:49;99764.47;;;16.59;69.29
19624;BME280;9959;49.798;9.928;2023-07-08T02:14:17;99770.72;;;16.43;71.07
19624;BME280;9959;49.798;9.928;2023-07-08T02:16:43;99771.41;;;16.50;70.25
19624;BME280;9959;49.798;9.928;2023-07-08T02:19:11;99775.84;;;16.56;70.92
19624;BME280;9959;49.798;9.928;2023-07-08T02:21:38;99772.88;;;16.41;70.67
19624;BME280;9959;49.798;9.928;2023-07-08T02:24:07;99777.66;;;16.34;71.21
19624;BME280;9959;49.798;9.928;2023-07-08T02:26:35;99782.44;;;16.27;71.14
19624;BME280;9959;49.798;9.928;2023-07-08T02:29:02;99783.50;;;16.26;71.46
19624;BME280;9959;49.798;9.928;2023-07-08T02:31:29;99781.25;;;16.23;72.20
19624;BME280;9959;49.798;9.928;2023-07-08T02:33:56;99783.56;;;16.14;72.50
19624;BME280;9959;49.798;9.928;2023-07-08T02:36:23;99794.19;;;16.16;72.68
19624;BME280;9959;49.798;9.928;2023-07-08T02:38:50;99789.81;;;16.15;72.69
19624;BME280;9959;49.798;9.928;2023-07-08T02:41:17;99793.53;;;16.09;72.85
19624;BME280;9959;49.798;9.928;2023-07-08T02:43:44;99792.25;;;16.00;72.94
19624;BME280;9959;49.798;9.928;2023-07-08T02:46:11;99794.53;;;15.91;73.86
19624;BME280;9959;49.798;9.928;2023-07-08T02:48:38;99790.41;;;15.88;74.47
19624;BME280;9959;49.798;9.928;2023-07-08T02:51:06;99795.19;;;15.81;74.64
19624;BME280;9959;49.798;9.928;2023-07-08T02:53:33;99795.94;;;15.94;73.89
19624;BME280;9959;49.798;9.928;2023-07-08T02:55:59;99796.84;;;15.82;75.39
19624;BME280;9959;49.798;9.928;2023-07-08T02:58:26;99794.97;;;15.71;76.16
19624;BME280;9959;49.798;9.928;2023-07-08T03:00:54;99799.44;;;15.77;75.98
19624;BME280;9959;49.798;9.928;2023-07-08T03:03:21;99808.69;;;15.65;76.71
19624;BME280;9959;49.798;9.928;2023-07-08T03:06:00;99809.16;;;15.73;76.05
19624;BME280;9959;49.798;9.928;2023-07-08T03:08:28;99811.06;;;15.61;76.90
19624;BME280;9959;49.798;9.928;2023-07-08T03:10:58;99812.63;;;15.57;77.07
19624;BME280;9959;49.798;9.928;2023-07-08T03:13:26;99820.97;;;15.67;76.58
19624;BME280;9959;49.798;9.928;2023-07-08T03:15:54;99829.84;;;15.51;77.56
19624;BME280;9959;49.798;9.928;2023-07-08T03:18:24;99830.78;;;15.45;78.08
19624;BME280;9959;49.798;9.928;2023-07-08T03:20:54;99833.28;;;15.46;78.09
19624;BME280;9959;49.798;9.928;2023-07-08T03:23:23;99829.84;;;15.51;78.09
19624;BME280;9959;49.798;9.928;2023-07-08T03:25:51;99823.34;;;15.52;77.95
19624;BME280;9959;49.798;9.928;2023-07-08T03:28:18;99826.91;;;15.52;78.04
19624;BME280;9959;49.798;9.928;2023-07-08T03:30:45;99837.91;;;15.57;77.44
19624;BME280;9959;49.798;9.928;2023-07-08T03:33:17;99834.94;;;15.59;77.93
19624;BME280;9959;49.798;9.928;2023-07-08T03:35:44;99840.84;;;15.56;78.41
19624;BME280;9959;49.798;9.928;2023-07-08T03:38:12;99838.66;;;15.81;76.51
19624;BME280;9959;49.798;9.928;2023-07-08T03:40:39;99836.84;;;15.87;76.13
19624;BME280;9959;49.798;9.928;2023-07-08T03:43:06;99831.47;;;16.04;74.99
19624;BME280;9959;49.798;9.928;2023-07-08T03:45:33;99837.75;;;15.64;77.15
19624;BME280;9959;49.798;9.928;2023-07-08T03:48:00;99840.69;;;15.63;77.28
19624;BME280;9959;49.798;9.928;2023-07-08T03:50:30;99841.41;;;15.70;76.97
19624;BME280;9959;49.798;9.928;2023-07-08T03:52:57;99837.63;;;15.71;77.33
19624;BME280;9959;49.798;9.928;2023-07-08T03:55:26;99843.28;;;15.69;77.24
19624;BME280;9959;49.798;9.928;2023-07-08T03:57:55;99839.50;;;15.70;76.95
19624;BME280;9959;49.798;9.928;2023-07-08T04:00:22;99845.88;;;15.64;77.75
19624;BME280;9959;49.798;9.928;2023-07-08T04:02:49;99851.66;;;15.79;77.35
19624;BME280;9959;49.798;9.928;2023-07-08T04:05:19;99852.97;;;15.77;77.02
19624;BME280;9959;49.798;9.928;2023-07-08T04:07:46;99850.72;;;15.74;77.44
19624;BME280;9959;49.798;9.928;2023-07-08T04:10:14;99848.34;;;15.77;76.38
19624;BME280;9959;49.798;9.928;2023-07-08T04:12:41;99856.38;;;15.84;75.79
19624;BME280;9959;49.798;9.928;2023-07-08T04:15:09;99846.81;;;15.81;75.55
19624;BME280;9959;49.798;9.928;2023-07-08T04:17:42;99847.66;;;15.70;76.10
19624;BME280;9959;49.798;9.928;2023-07-08T04:20:10;99854.25;;;15.74;76.40
19624;BME280;9959;49.798;9.928;2023-07-08T04:22:40;99853.50;;;15.90;75.91
19624;BME280;9959;49.798;9.928;2023-07-08T04:25:07;99850.97;;;15.72;76.20
19624;BME280;9959;49.798;9.928;2023-07-08T04:27:34;99847.44;;;15.60;76.99
19624;BME280;9959;49.798;9.928;2023-07-08T04:30:01;99851.91;;;15.66;76.99
19624;BME280;9959;49.798;9.928;2023-07-08T04:32:30;99850.97;;;15.61;77.45
19624;BME280;9959;49.798;9.928;2023-07-08T04:34:58;99844.94;;;15.70;77.37
19624;BME280;9959;49.798;9.928;2023-07-08T04:37:25;99844.00;;;15.65;77.03
19624;BME280;9959;49.798;9.928;2023-07-08T04:39:52;99845.28;;;15.74;76.65
19624;BME280;9959;49.798;9.928;2023-07-08T04:42:19;99848.47;;;15.82;76.65
19624;BME280;9959;49.798;9.928;2023-07-08T04:44:46;99853.94;;;15.99;75.18
19624;BME280;9959;49.798;9.928;2023-07-08T04:47:13;99849.13;;;16.18;73.63
19624;BME280;9959;49.798;9.928;2023-07-08T04:49:40;99852.91;;;16.17;73.55
19624;BME280;9959;49.798;9.928;2023-07-08T04:52:10;99859.81;;;16.08;74.31
19624;BME280;9959;49.798;9.928;2023-07-08T04:54:37;99852.25;;;16.10;74.39
19624;BME280;9959;49.798;9.928;2023-07-08T04:57:04;99851.47;;;16.26;73.98
19624;BME280;9959;49.798;9.928;2023-07-08T04:59:31;99858.56;;;16.44;73.04
19624;BME280;9959;49.798;9.928;2023-07-08T05:02:01;99851.91;;;16.51;72.19
19624;BME280;9959;49.798;9.928;2023-07-08T05:04:28;99848.50;;;16.28;73.88
19624;BME280;9959;49.798;9.928;2023-07-08T05:06:55;99845.50;;;16.57;72.18
19624;BME280;9959;49.798;9.928;2023-07-08T05:09:22;99848.00;;;16.76;71.26
19624;BME280;9959;49.798;9.928;2023-07-08T05:11:53;99849.91;;;16.92;70.16
19624;BME280;9959;49.798;9.928;2023-07-08T05:14:20;99861.84;;;17.08;69.24
19624;BME280;9959;49.798;9.928;2023-07-08T05:16:47;99856.31;;;17.19;68.43
19624;BME280;9959;49.798;9.928;2023-07-08T05:19:14;99861.81;;;17.24;68.23
19624;BME280;9959;49.798;9.928;2023-07-08T05:21:41;99858.75;;;17.38;67.21
19624;BME280;9959;49.798;9.928;2023-07-08T05:24:09;99854.84;;;17.50;66.17
19624;BME280;9959;49.798;9.928;2023-07-08T05:26:36;99866.78;;;17.66;65.61
19624;BME280;9959;49.798;9.928;2023-07-08T05:29:03;99862.19;;;18.15;62.97
19624;BME280;9959;49.798;9.928;2023-07-08T05:31:33;99860.91;;;17.96;63.49
19624;BME280;9959;49.798;9.928;2023-07-08T05:34:03;99862.13;;;18.10;62.85
19624;BME280;9959;49.798;9.928;2023-07-08T05:36:30;99868.84;;;18.24;60.85
19624;BME280;9959;49.798;9.928;2023-07-08T05:38:57;99866.56;;;18.43;60.37
19624;BME280;9959;49.798;9.928;2023-07-08T05:41:23;99868.53;;;18.75;59.32
19624;BME280;9959;49.798;9.928;2023-07-08T05:43:50;99859.84;;;18.78;59.15
19624;BME280;9959;49.798;9.928;2023-07-08T05:46:17;99861.69;;;19.04;57.46
19624;BME280;9959;49.798;9.928;2023-07-08T05:48:44;99859.88;;;18.83;58.64
19624;BME280;9959;49.798;9.928;2023-07-08T05:51:11;99857.47;;;18.91;57.29
19624;BME280;9959;49.798;9.928;2023-07-08T05:53:38;99856.75;;;19.01;56.84
19624;BME280;9959;49.798;9.928;2023-07-08T05:56:05;99853.03;;;19.17;55.80
19624;BME280;9959;49.798;9.928;2023-07-08T05:58:32;99853.13;;;19.33;55.08
19624;BME280;9959;49.798;9.928;2023-07-08T06:00:59;99849.09;;;19.45;54.25
19624;BME280;9959;49.798;9.928;2023-07-08T06:03:27;99845.53;;;19.40;53.25
19624;BME280;9959;49.798;9.928;2023-07-08T06:05:54;99842.69;;;19.67;52.43
19624;BME280;9959;49.798;9.928;2023-07-08T06:08:21;99848.44;;;19.65;52.63
19624;BME280;9959;49.798;9.928;2023-07-08T06:10:49;99840.28;;;19.85;51.52
19624;BME280;9959;49.798;9.928;2023-07-08T06:13:17;99844.72;;;20.02;49.98
19624;BME280;9959;49.798;9.928;2023-07-08T06:15:44;99841.50;;;20.20;49.96
19624;BME280;9959;49.798;9.928;2023-07-08T06:18:11;99847.78;;;20.20;49.68
19624;BME280;9959;49.798;9.928;2023-07-08T06:20:38;99845.94;;;20.56;49.07
19624;BME280;9959;49.798;9.928;2023-07-08T06:23:05;99834.22;;;20.76;48.25
19624;BME280;9959;49.798;9.928;2023-07-08T06:25:32;99845.69;;;20.83;48.81
19624;BME280;9959;49.798;9.928;2023-07-08T06:27:59;99843.22;;;20.92;48.25
19624;BME280;9959;49.798;9.928;2023-07-08T06:30:26;99838.00;;;20.85;48.37
19624;BME280;9959;49.798;9.928;2023-07-08T06:32:53;99844.31;;;20.86;48.86
19624;BME280;9959;49.798;9.928;2023-07-08T06:35:21;99851.41;;;21.07;48.26
19624;BME280;9959;49.798;9.928;2023-07-08T06:37:48;99846.78;;;20.92;48.48
19624;BME280;9959;49.798;9.928;2023-07-08T06:40:17;99836.88;;;21.17;47.93
19624;BME280;9959;49.798;9.928;2023-07-08T06:42:46;99843.63;;;21.70;46.65
19624;BME280;9959;49.798;9.928;2023-07-08T06:45:14;99844.72;;;21.74;46.89
19624;BME280;9959;49.798;9.928;2023-07-08T06:47:41;99835.38;;;21.80;46.20
19624;BME280;9959;49.798;9.928;2023-07-08T06:50:08;99835.28;;;22.01;46.22
19624;BME280;9959;49.798;9.928;2023-07-08T06:52:35;99829.03;;;22.39;45.58
19624;BME280;9959;49.798;9.928;2023-07-08T06:55:05;99826.22;;;22.44;45.14
19624;BME280;9959;49.798;9.928;2023-07-08T06:57:33;99815.34;;;22.68;45.03
19624;BME280;9959;49.798;9.928;2023-07-08T07:00:00;99823.78;;;22.82;44.50
19624;BME280;9959;49.798;9.928;2023-07-08T07:02:27;99816.59;;;22.86;44.65
19624;BME280;9959;49.798;9.928;2023-07-08T07:04:54;99810.91;;;23.06;43.96
19624;BME280;9959;49.798;9.928;2023-07-08T07:07:22;99811.34;;;23.42;43.17
19624;BME280;9959;49.798;9.928;2023-07-08T07:09:49;99805.22;;;23.50;42.86
19624;BME280;9959;49.798;9.928;2023-07-08T07:12:16;99810.13;;;23.77;42.07
19624;BME280;9959;49.798;9.928;2023-07-08T07:14:43;99803.19;;;23.80;42.09
19624;BME280;9959;49.798;9.928;2023-07-08T07:17:13;99804.25;;;23.84;41.84
19624;BME280;9959;49.798;9.928;2023-07-08T07:19:40;99798.88;;;24.68;40.55
19624;BME280;9959;49.798;9.928;2023-07-08T07:22:07;99798.94;;;24.49;40.28
19624;BME280;9959;49.798;9.928;2023-07-08T07:24:34;99797.72;;;24.55;39.49
19624;BME280;9959;49.798;9.928;2023-07-08T07:27:00;99797.41;;;25.08;38.90
19624;BME280;9959;49.798;9.928;2023-07-08T07:29:28;99793.03;;;25.75;37.90
19624;BME280;9959;49.798;9.928;2023-07-08T07:31:54;99802.06;;;25.67;37.46
19624;BME280;9959;49.798;9.928;2023-07-08T07:34:21;99802.72;;;26.36;36.22
19624;BME280;9959;49.798;9.928;2023-07-08T07:36:49;99799.16;;;26.80;35.17
19624;BME280;9959;49.798;9.928;2023-07-08T07:39:16;99795.97;;;26.64;35.58
19624;BME280;9959;49.798;9.928;2023-07-08T07:41:42;99800.56;;;27.22;34.56
19624;BME280;9959;49.798;9.928;2023-07-08T07:44:09;99803.38;;;26.78;35.75
19624;BME280;9959;49.798;9.928;2023-07-08T07:46:36;99808.75;;;26.60;36.00
19624;BME280;9959;49.798;9.928;2023-07-08T07:49:03;99815.09;;;26.61;35.93
19624;BME280;9959;49.798;9.928;2023-07-08T07:51:30;99811.88;;;26.90;35.40
19624;BME280;9959;49.798;9.928;2023-07-08T07:53:57;99809.47;;;26.66;35.81
19624;BME280;9959;49.798;9.928;2023-07-08T07:56:24;99813.53;;;26.91;35.51
19624;BME280;9959;49.798;9.928;2023-07-08T07:58:51;99815.44;;;27.44;34.59
19624;BME280;9959;49.798;9.928;2023-07-08T08:01:18;99817.16;;;28.53;33.75
19624;BME280;9959;49.798;9.928;2023-07-08T08:03:47;99819.38;;;28.00;34.49
19624;BME280;9959;49.798;9.928;2023-07-08T08:06:17;99824.09;;;27.90;34.66
19624;BME280;9959;49.798;9.928;2023-07-08T08:08:45;99820.94;;;29.30;32.47
19624;BME280;9959;49.798;9.928;2023-07-08T08:11:12;99825.47;;;30.11;31.46
19624;BME280;9959;49.798;9.928;2023-07-08T08:13:39;99830.34;;;28.74;33.09
19624;BME280;9959;49.798;9.928;2023-07-08T08:16:06;99830.53;;;28.69;33.47
19624;BME280;9959;49.798;9.928;2023-07-08T08:18:33;99830.22;;;28.53;33.62
19624;BME280;9959;49.798;9.928;2023-07-08T08:21:00;99836.50;;;29.22;33.00
19624;BME280;9959;49.798;9.928;2023-07-08T08:23:27;99838.25;;;29.27;32.87
19624;BME280;9959;49.798;9.928;2023-07-08T08:25:54;99838.22;;;28.72;33.14
19624;BME280;9959;49.798;9.928;2023-07-08T08:28:21;99846.34;;;28.77;33.13
19624;BME280;9959;49.798;9.928;2023-07-08T08:30:49;99844.56;;;28.89;32.81
19624;BME280;9959;49.798;9.928;2023-07-08T08:33:17;99838.31;;;29.18;32.00
19624;BME280;9959;49.798;9.928;2023-07-08T08:35:44;99832.88;;;30.07;30.79
19624;BME280;9959;49.798;9.928;2023-07-08T08:38:12;99830.50;;;29.58;31.86
19624;BME280;9959;49.798;9.928;2023-07-08T08:40:40;99834.91;;;29.89;31.69
19624;BME280;9959;49.798;9.928;2023-07-08T08:43:14;99838.03;;;30.17;30.00
19624;BME280;9959;49.798;9.928;2023-07-08T08:51:50;99839.84;;;29.83;30.08
19624;BME280;9959;49.798;9.928;2023-07-08T08:54:18;99844.00;;;30.07;29.73
19624;BME280;9959;49.798;9.928;2023-07-08T08:59:57;99840.38;;;30.56;28.68
19624;BME280;9959;49.798;9.928;2023-07-08T09:05:08;99860.53;;;30.24;28.67
19624;BME280;9959;49.798;9.928;2023-07-08T09:13:40;99845.03;;;31.18;27.46
19624;BME280;9959;49.798;9.928;2023-07-08T09:16:23;99843.19;;;30.27;28.22
19624;BME280;9959;49.798;9.928;2023-07-08T09:19:32;99850.09;;;30.42;28.89
19624;BME280;9959;49.798;9.928;2023-07-08T09:24:51;99830.66;;;31.16;26.97
19624;BME280;9959;49.798;9.928;2023-07-08T09:27:16;99824.53;;;30.69;28.34
19624;BME280;9959;49.798;9.928;2023-07-08T09:29:43;99826.53;;;30.27;28.84
19624;BME280;9959;49.798;9.928;2023-07-08T09:32:24;99811.34;;;31.11;27.22
19624;BME280;9959;49.798;9.928;2023-07-08T09:35:05;99816.53;;;31.58;26.68
19624;BME280;9959;49.798;9.928;2023-07-08T09:37:35;99814.44;;;30.64;27.22
19624;BME280;9959;49.798;9.928;2023-07-08T09:42:48;99819.88;;;31.51;26.07
19624;BME280;9959;49.798;9.928;2023-07-08T09:45:22;99819.50;;;32.38;25.11
19624;BME280;9959;49.798;9.928;2023-07-08T09:47:54;99821.16;;;32.15;25.76
19624;BME280;9959;49.798;9.928;2023-07-08T09:50:26;99813.38;;;31.47;26.07
19624;BME280;9959;49.798;9.928;2023-07-08T09:52:57;99808.38;;;31.28;27.00
19624;BME280;9959;49.798;9.928;2023-07-08T09:55:27;99806.97;;;31.22;26.65
19624;BME280;9959;49.798;9.928;2023-07-08T09:57:58;99807.16;;;32.51;24.99
19624;BME280;9959;49.798;9.928;2023-07-08T10:00:39;99811.88;;;32.23;25.01
19624;BME280;9959;49.798;9.928;2023-07-08T10:03:22;99803.09;;;31.96;24.92
19624;BME280;9959;49.798;9.928;2023-07-08T10:05:52;99802.81;;;32.14;24.83
19624;BME280;9959;49.798;9.928;2023-07-08T10:08:21;99802.06;;;32.41;24.68
19624;BME280;9959;49.798;9.928;2023-07-08T10:11:21;99805.88;;;31.84;24.76
19624;BME280;9959;49.798;9.928;2023-07-08T10:13:53;99809.56;;;32.25;24.47
19624;BME280;9959;49.798;9.928;2023-07-08T10:16:38;99795.00;;;31.67;25.54
19624;BME280;9959;49.798;9.928;2023-07-08T10:19:13;99798.16;;;32.06;24.79
19624;BME280;9959;49.798;9.928;2023-07-08T10:22:03;99796.00;;;32.79;24.04
19624;BME280;9959;49.798;9.928;2023-07-08T10:27:49;99789.88;;;32.61;24.41
19624;BME280;9959;49.798;9.928;2023-07-08T10:30:37;99779.59;;;34.04;23.32
19624;BME280;9959;49.798;9.928;2023-07-08T10:33:21;99780.72;;;33.68;23.64
19624;BME280;9959;49.798;9.928;2023-07-08T10:39:23;99781.53;;;33.68;22.67
19624;BME280;9959;49.798;9.928;2023-07-08T10:44:35;99774.00;;;33.53;22.70
19624;BME280;9959;49.798;9.928;2023-07-08T10:47:35;99772.03;;;33.53;22.72
19624;BME280;9959;49.798;9.928;2023-07-08T10:52:43;99783.53;;;33.83;22.02
19624;BME280;9959;49.798;9.928;2023-07-08T10:55:40;99769.56;;;33.83;21.57
19624;BME280;9959;49.798;9.928;2023-07-08T11:01:04;99763.72;;;33.57;21.53
19624;BME280;9959;49.798;9.928;2023-07-08T11:06:29;99763.72;;;34.08;21.31
19624;BME280;9959;49.798;9.928;2023-07-08T11:09:04;99760.13;;;33.41;21.37
19624;BME280;9959;49.798;9.928;2023-07-08T11:11:39;99762.59;;;33.77;21.55
19624;BME280;9959;49.798;9.928;2023-07-08T11:15:06;99760.75;;;34.01;20.58
19624;BME280;9959;49.798;9.928;2023-07-08T11:17:36;99765.75;;;34.46;21.10
19624;BME280;9959;49.798;9.928;2023-07-08T11:23:22;99750.56;;;34.47;20.21
19624;BME280;9959;49.798;9.928;2023-07-08T11:25:54;99750.56;;;34.47;20.52
19624;BME280;9959;49.798;9.928;2023-07-08T11:28:26;99754.56;;;34.46;20.95
19624;BME280;9959;49.798;9.928;2023-07-08T11:31:01;99742.56;;;35.82;19.84
19624;BME280;9959;49.798;9.928;2023-07-08T11:33:29;99753.59;;;35.72;19.11
19624;BME280;9959;49.798;9.928;2023-07-08T11:36:02;99747.81;;;34.70;20.33
19624;BME280;9959;49.798;9.928;2023-07-08T11:38:32;99741.59;;;34.18;19.63
19624;BME280;9959;49.798;9.928;2023-07-08T11:41:15;99726.94;;;35.09;19.12
19624;BME280;9959;49.798;9.928;2023-07-08T11:43:47;99738.97;;;34.68;19.55
19624;BME280;9959;49.798;9.928;2023-07-08T11:46:20;99735.22;;;35.25;18.79
19624;BME280;9959;49.798;9.928;2023-07-08T11:48:52;99742.31;;;36.24;18.69
19624;BME280;9959;49.798;9.928;2023-07-08T11:51:24;99735.66;;;35.50;18.57
19624;BME280;9959;49.798;9.928;2023-07-08T11:54:34;99738.09;;;34.25;19.42
19624;BME280;9959;49.798;9.928;2023-07-08T11:57:04;99733.00;;;34.88;18.96
19624;BME280;9959;49.798;9.928;2023-07-08T11:59:37;99730.00;;;35.46;18.23
19624;BME280;9959;49.798;9.928;2023-07-08T12:02:17;99725.13;;;35.43;18.42
19624;BME280;9959;49.798;9.928;2023-07-08T12:05:12;99729.88;;;35.92;18.91
19624;BME280;9959;49.798;9.928;2023-07-08T12:07:45;99732.75;;;36.25;17.60
19624;BME280;9959;49.798;9.928;2023-07-08T12:10:27;99730.91;;;36.40;17.29
19624;BME280;9959;49.798;9.928;2023-07-08T12:12:54;99720.59;;;35.61;18.08
19624;BME280;9959;49.798;9.928;2023-07-08T12:15:24;99725.50;;;35.94;18.09
19624;BME280;9959;49.798;9.928;2023-07-08T12:17:58;99727.00;;;35.36;18.34
19624;BME280;9959;49.798;9.928;2023-07-08T12:20:37;99725.19;;;35.73;18.35
19624;BME280;9959;49.798;9.928;2023-07-08T12:23:14;99718.84;;;33.50;19.94
19624;BME280;9959;49.798;9.928;2023-07-08T12:25:41;99723.50;;;35.95;18.31
19624;BME280;9959;49.798;9.928;2023-07-08T12:28:10;99715.88;;;37.40;16.87
19624;BME280;9959;49.798;9.928;2023-07-08T12:30:40;99705.75;;;36.84;17.21
19624;BME280;9959;49.798;9.928;2023-07-08T12:33:12;99702.25;;;36.57;17.67
19624;BME280;9959;49.798;9.928;2023-07-08T12:35:41;99698.91;;;36.82;17.27
19624;BME280;9959;49.798;9.928;2023-07-08T12:40:43;99707.47;;;37.51;16.77
19624;BME280;9959;49.798;9.928;2023-07-08T12:43:10;99702.69;;;36.63;17.70
19624;BME280;9959;49.798;9.928;2023-07-08T12:45:37;99713.34;;;36.84;17.79
19624;BME280;9959;49.798;9.928;2023-07-08T12:48:04;99709.34;;;35.58;19.05
19624;BME280;9959;49.798;9.928;2023-07-08T12:50:32;99715.09;;;36.58;18.05
19624;BME280;9959;49.798;9.928;2023-07-08T12:52:58;99708.59;;;36.88;17.89
19624;BME280;9959;49.798;9.928;2023-07-08T12:55:31;99716.97;;;36.17;18.34
19624;BME280;9959;49.798;9.928;2023-07-08T12:57:59;99708.94;;;35.82;18.55
19624;BME280;9959;49.798;9.928;2023-07-08T13:00:31;99708.94;;;35.82;18.57
19624;BME280;9959;49.798;9.928;2023-07-08T13:03:04;99711.00;;;35.62;18.75
19624;BME280;9959;49.798;9.928;2023-07-08T13:05:33;99703.81;;;36.92;17.58
19624;BME280;9959;49.798;9.928;2023-07-08T13:08:00;99696.97;;;36.52;17.99
19624;BME280;9959;49.798;9.928;2023-07-08T13:10:28;99704.50;;;36.82;18.06
19624;BME280;9959;49.798;9.928;2023-07-08T13:12:59;99708.50;;;35.54;18.81
19624;BME280;9959;49.798;9.928;2023-07-08T13:15:33;99706.75;;;35.46;19.55
19624;BME280;9959;49.798;9.928;2023-07-08T13:18:02;99700.22;;;34.89;19.99
19624;BME280;9959;49.798;9.928;2023-07-08T13:20:30;99701.28;;;36.13;18.53
19624;BME280;9959;49.798;9.928;2023-07-08T13:23:00;99699.50;;;38.36;16.95
19624;BME280;9959;49.798;9.928;2023-07-08T13:25:30;99692.25;;;38.21;16.89
19624;BME280;9959;49.798;9.928;2023-07-08T13:28:12;99699.44;;;36.57;18.13
19624;BME280;9959;49.798;9.928;2023-07-08T13:30:56;99696.97;;;36.19;18.47
19624;BME280;9959;49.798;9.928;2023-07-08T13:33:28;99691.47;;;36.67;18.24
19624;BME280;9959;49.798;9.928;2023-07-08T13:35:55;99686.25;;;38.40;16.74
19624;BME280;9959;49.798;9.928;2023-07-08T13:38:25;99688.38;;;38.79;16.16
19624;BME280;9959;49.798;9.928;2023-07-08T13:40:56;99688.38;;;39.29;15.79
19624;BME280;9959;49.798;9.928;2023-07-08T13:43:27;99690.53;;;37.37;17.42
19624;BME280;9959;49.798;9.928;2023-07-08T13:45:55;99691.19;;;39.43;15.53
19624;BME280;9959;49.798;9.928;2023-07-08T13:48:36;99688.41;;;37.74;17.07
19624;BME280;9959;49.798;9.928;2023-07-08T13:51:18;99682.91;;;36.86;17.23
19624;BME280;9959;49.798;9.928;2023-07-08T13:53:51;99668.13;;;38.34;16.13
19624;BME280;9959;49.798;9.928;2023-07-08T13:56:29;99682.34;;;39.48;15.46
19624;BME280;9959;49.798;9.928;2023-07-08T13:59:08;99681.69;;;37.35;16.80
19624;BME280;9959;49.798;9.928;2023-07-08T14:01:39;99683.06;;;37.62;16.59
19624;BME280;9959;49.798;9.928;2023-07-08T14:04:07;99691.84;;;35.15;18.86
19624;BME280;9959;49.798;9.928;2023-07-08T14:06:38;99692.50;;;37.94;17.19
19624;BME280;9959;49.798;9.928;2023-07-08T14:09:16;99682.56;;;37.42;16.71
19624;BME280;9959;49.798;9.928;2023-07-08T14:11:44;99677.38;;;38.31;16.03
19624;BME280;9959;49.798;9.928;2023-07-08T14:14:12;99678.06;;;38.00;15.99
19624;BME280;9959;49.798;9.928;2023-07-08T14:16:44;99668.22;;;37.07;17.25